createdAt,value
2023-04-16T00:01:58.659Z,26.28
2023-04-16T00:04:25.376Z,26.26
2023-04-16T00:06:51.803Z,26.24
2023-04-16T00:09:18.124Z,26.25
2023-04-16T00:11:44.450Z,26.23
2023-04-16T00:14:10.994Z,26.23
2023-04-16T00:16:38.432Z,26.22
2023-04-16T00:19:04.789Z,26.20
2023-04-16T00:21:31.315Z,26.05
2023-04-16T00:23:57.643Z,26.02
2023-04-16T00:26:23.981Z,25.99
2023-04-16T00:28:50.303Z,26.00
2023-04-16T00:31:16.689Z,25.94
2023-04-16T00:33:43.048Z,25.87
2023-04-16T00:36:09.493Z,25.83
2023-04-16T00:38:36.905Z,25.80
2023-04-16T00:41:03.986Z,25.78
2023-04-16T00:43:31.724Z,25.76
2023-04-16T00:45:58.678Z,25.73
2023-04-16T00:48:27.848Z,25.71
2023-04-16T00:50:55.362Z,25.70
2023-04-16T00:53:21.677Z,25.67
2023-04-16T00:55:47.987Z,25.66
2023-04-16T00:58:14.308Z,25.63
2023-04-16T01:00:41.546Z,25.61
2023-04-16T01:03:08.062Z,25.58
2023-04-16T01:05:35.452Z,25.55
2023-04-16T01:08:01.835Z,25.54
2023-04-16T01:10:28.220Z,25.51
2023-04-16T01:12:54.533Z,25.49
2023-04-16T01:15:20.879Z,25.46
2023-04-16T01:17:47.272Z,25.45
2023-04-16T01:20:13.700Z,25.42
2023-04-16T01:22:40.144Z,25.41
2023-04-16T01:25:06.480Z,25.37
2023-04-16T01:27:32.858Z,25.36
2023-04-16T01:29:59.190Z,25.34
2023-04-16T01:32:25.593Z,25.33
2023-04-16T01:34:51.943Z,25.31
2023-04-16T01:37:18.251Z,25.29
2023-04-16T01:39:44.578Z,25.28
2023-04-16T01:42:10.883Z,25.26
2023-04-16T01:44:37.259Z,25.22
2023-04-16T01:47:04.171Z,25.20
2023-04-16T01:49:30.696Z,25.19
2023-04-16T01:51:57.026Z,25.18
2023-04-16T01:54:23.371Z,25.16
2023-04-16T01:56:49.742Z,25.10
2023-04-16T01:59:16.054Z,25.12
2023-04-16T02:01:42.561Z,25.10
2023-04-16T02:04:08.973Z,25.08
2023-04-16T02:06:35.296Z,25.07
2023-04-16T02:09:01.670Z,25.05
2023-04-16T02:11:28.307Z,25.03
2023-04-16T02:13:54.628Z,25.01
2023-04-16T02:16:21.004Z,24.98
2023-04-16T02:18:47.615Z,24.95
2023-04-16T02:21:13.971Z,24.92
2023-04-16T02:23:41.357Z,24.89
2023-04-16T02:26:07.682Z,24.86
2023-04-16T02:28:34.012Z,24.84
2023-04-16T02:31:00.432Z,24.83
2023-04-16T02:33:26.774Z,24.79
2023-04-16T02:35:53.244Z,24.79
2023-04-16T02:38:19.588Z,24.76
2023-04-16T02:40:45.919Z,24.73
2023-04-16T02:43:12.261Z,24.71
2023-04-16T02:45:38.621Z,24.68
2023-04-16T02:48:08.675Z,24.66
2023-04-16T02:50:35.186Z,24.64
2023-04-16T02:53:01.491Z,24.63
2023-04-16T02:55:29.421Z,24.58
2023-04-16T02:57:55.824Z,24.56
2023-04-16T03:00:22.573Z,24.55
2023-04-16T03:02:49.101Z,24.52
2023-04-16T03:05:15.527Z,24.46
2023-04-16T03:07:41.881Z,24.50
2023-04-16T03:10:08.855Z,24.47
2023-04-16T03:12:35.872Z,24.45
2023-04-16T03:15:02.393Z,24.43
2023-04-16T03:17:28.793Z,24.41
2023-04-16T03:19:55.234Z,24.38
2023-04-16T03:22:21.543Z,24.36
2023-04-16T03:24:47.904Z,24.31
2023-04-16T03:27:14.220Z,24.28
2023-04-16T03:29:40.598Z,24.27
2023-04-16T03:32:07.139Z,24.23
2023-04-16T03:34:33.458Z,24.21
2023-04-16T03:37:00.178Z,24.19
2023-04-16T03:39:26.492Z,24.17
2023-04-16T03:41:52.823Z,24.13
2023-04-16T03:44:19.138Z,24.12
2023-04-16T03:46:45.570Z,24.11
2023-04-16T03:49:12.128Z,24.08
2023-04-16T03:51:38.614Z,24.06
2023-04-16T03:54:04.941Z,24.04
2023-04-16T03:56:31.269Z,24.03
2023-04-16T03:58:57.581Z,24.02
2023-04-16T04:01:23.903Z,24.01
2023-04-16T04:03:50.539Z,23.97
2023-04-16T04:06:16.955Z,23.98
2023-04-16T04:08:43.414Z,23.96
2023-04-16T04:11:09.747Z,23.93
2023-04-16T04:13:36.060Z,23.90
2023-04-16T04:16:02.439Z,23.90
2023-04-16T04:18:28.781Z,23.88
2023-04-16T04:20:55.119Z,23.85
2023-04-16T04:23:21.447Z,23.84
2023-04-16T04:25:47.794Z,23.80
2023-04-16T04:28:14.155Z,23.79
2023-04-16T04:30:40.477Z,23.77
2023-04-16T04:33:06.847Z,23.76
2023-04-16T04:35:33.359Z,23.74
2023-04-16T04:37:59.689Z,23.71
2023-04-16T04:40:26.291Z,23.70
2023-04-16T04:42:52.668Z,23.69
2023-04-16T04:45:19.218Z,23.67
2023-04-16T04:47:45.588Z,23.65
2023-04-16T04:50:11.943Z,23.62
2023-04-16T04:52:38.261Z,23.61
2023-04-16T04:55:04.695Z,23.58
2023-04-16T04:57:31.173Z,23.55
2023-04-16T04:59:57.519Z,23.52
2023-04-16T05:02:23.955Z,23.51
2023-04-16T05:04:50.364Z,23.46
2023-04-16T05:07:16.874Z,23.49
2023-04-16T05:09:43.192Z,23.47
2023-04-16T05:12:09.542Z,23.45
2023-04-16T05:14:36.485Z,23.45
2023-04-16T05:17:02.953Z,23.43
2023-04-16T05:19:29.337Z,23.41
2023-04-16T05:21:55.867Z,23.41
2023-04-16T05:24:22.269Z,23.39
2023-04-16T05:26:48.582Z,23.37
2023-04-16T05:29:14.888Z,23.36
2023-04-16T05:31:41.225Z,23.35
2023-04-16T05:34:07.553Z,23.33
2023-04-16T05:36:33.879Z,23.32
2023-04-16T05:39:00.219Z,23.31
2023-04-16T05:41:26.530Z,23.30
2023-04-16T05:43:52.862Z,23.30
2023-04-16T05:46:19.231Z,23.28
2023-04-16T05:48:45.951Z,23.28
2023-04-16T05:51:12.279Z,23.27
2023-04-16T05:53:38.597Z,23.26
2023-04-16T05:56:04.999Z,23.25
2023-04-16T05:58:31.375Z,23.18
2023-04-16T06:00:57.700Z,23.19
2023-04-16T06:03:24.142Z,23.18
2023-04-16T06:05:50.590Z,23.15
2023-04-16T06:08:16.976Z,23.12
2023-04-16T06:10:43.302Z,23.11
2023-04-16T06:13:09.613Z,23.11
2023-04-16T06:15:35.935Z,23.09
2023-04-16T06:18:02.262Z,23.07
2023-04-16T06:20:28.975Z,23.06
2023-04-16T06:22:55.671Z,23.06
2023-04-16T06:25:21.998Z,23.04
2023-04-16T06:27:48.324Z,23.03
2023-04-16T06:30:15.149Z,23.03
2023-04-16T06:32:42.370Z,23.03
2023-04-16T06:35:08.729Z,23.02
2023-04-16T06:37:35.471Z,23.01
2023-04-16T06:40:01.946Z,23.01
2023-04-16T06:42:28.321Z,23.00
2023-04-16T06:44:54.623Z,22.98
2023-04-16T06:47:21.133Z,22.96
2023-04-16T06:49:47.477Z,22.97
2023-04-16T06:52:13.816Z,22.96
2023-04-16T06:54:40.506Z,22.95
2023-04-16T06:57:06.863Z,22.93
2023-04-16T06:59:33.210Z,22.92
2023-04-16T07:01:59.633Z,22.90
2023-04-16T07:04:26.177Z,22.89
2023-04-16T07:06:52.585Z,22.88
2023-04-16T07:09:19.079Z,22.88
2023-04-16T07:11:45.427Z,22.88
2023-04-16T07:14:12.052Z,22.86
2023-04-16T07:16:38.459Z,22.86
2023-04-16T07:19:04.785Z,22.82
2023-04-16T07:21:31.719Z,22.82
2023-04-16T07:23:58.046Z,22.83
2023-04-16T07:26:24.646Z,22.84
2023-04-16T07:28:51.132Z,22.87
2023-04-16T07:31:17.558Z,22.90
2023-04-16T07:33:43.903Z,22.93
2023-04-16T07:36:10.972Z,22.94
2023-04-16T07:38:37.284Z,22.93
2023-04-16T07:41:03.619Z,22.95
2023-04-16T07:43:29.945Z,22.94
2023-04-16T07:45:56.553Z,22.92
2023-04-16T07:48:22.916Z,22.91
2023-04-16T07:50:50.116Z,22.88
2023-04-16T07:53:16.430Z,22.84
2023-04-16T07:55:42.799Z,22.84
2023-04-16T07:58:09.591Z,22.80
2023-04-16T08:00:36.174Z,22.78
2023-04-16T08:03:02.738Z,22.73
2023-04-16T08:05:29.240Z,22.68
2023-04-16T08:07:55.704Z,22.68
2023-04-16T08:10:22.037Z,22.67
2023-04-16T08:12:48.401Z,22.72
2023-04-16T08:15:14.962Z,22.65
2023-04-16T08:17:41.319Z,22.68
2023-04-16T08:20:07.820Z,22.69
2023-04-16T08:22:34.412Z,22.63
2023-04-16T08:25:00.931Z,21.41
2023-04-16T08:27:27.325Z,21.40
2023-04-16T08:29:53.689Z,21.80
2023-04-16T08:32:20.032Z,22.08
2023-04-16T08:34:46.434Z,22.19
2023-04-16T08:37:12.763Z,22.26
2023-04-16T08:39:39.096Z,22.28
2023-04-16T08:42:05.688Z,22.30
2023-04-16T08:44:32.396Z,22.30
2023-04-16T08:46:59.207Z,22.34
2023-04-16T08:49:25.997Z,22.34
2023-04-16T08:51:55.600Z,22.36
2023-04-16T08:54:32.326Z,22.36
2023-04-16T08:56:59.287Z,22.39
2023-04-16T08:59:26.058Z,22.37
2023-04-16T09:01:53.683Z,22.36
2023-04-16T09:04:20.230Z,22.36
2023-04-16T09:06:46.640Z,22.34
2023-04-16T09:09:13.030Z,22.32
2023-04-16T09:11:39.808Z,22.31
2023-04-16T09:14:07.370Z,22.31
2023-04-16T09:16:33.816Z,22.32
2023-04-16T09:19:00.189Z,22.34
2023-04-16T09:21:26.533Z,22.36
2023-04-16T09:23:55.550Z,22.36
2023-04-16T09:26:21.886Z,22.36
2023-04-16T09:28:49.415Z,22.37
2023-04-16T09:31:16.349Z,22.35
2023-04-16T09:33:42.938Z,22.36
2023-04-16T09:36:09.262Z,22.36
2023-04-16T09:38:48.439Z,22.35
2023-04-16T09:41:17.715Z,22.38
2023-04-16T09:43:57.548Z,22.42
2023-04-16T09:46:30.124Z,22.45
2023-04-16T09:48:56.581Z,22.47
2023-04-16T09:51:22.938Z,22.44
2023-04-16T09:53:51.595Z,22.43
2023-04-16T09:56:17.934Z,22.42
2023-04-16T09:58:44.248Z,22.42
2023-04-16T10:01:11.196Z,22.42
2023-04-16T10:03:38.503Z,22.41
2023-04-16T10:06:14.916Z,22.41
2023-04-16T10:08:44.342Z,22.41
2023-04-16T10:11:10.896Z,22.43
2023-04-16T10:13:37.225Z,22.47
2023-04-16T10:16:03.546Z,22.50
2023-04-16T10:18:29.868Z,22.52
2023-04-16T10:20:56.194Z,22.55
2023-04-16T10:23:22.551Z,22.55
2023-04-16T10:25:49.424Z,22.50
2023-04-16T10:28:16.102Z,22.49
2023-04-16T10:30:48.177Z,22.47
2023-04-16T10:33:14.542Z,22.45
2023-04-16T10:35:41.070Z,22.44
2023-04-16T10:38:26.432Z,22.41
2023-04-16T10:41:05.029Z,22.37
2023-04-16T10:43:34.249Z,22.36
2023-04-16T10:46:24.057Z,22.41
2023-04-16T10:48:52.534Z,22.39
2023-04-16T10:51:28.060Z,22.32
2023-04-16T10:53:55.131Z,22.33
2023-04-16T10:56:24.857Z,22.38
2023-04-16T10:58:51.193Z,22.41
2023-04-16T11:01:18.800Z,22.56
2023-04-16T11:03:48.315Z,22.74
2023-04-16T11:06:16.680Z,22.80
2023-04-16T11:08:53.995Z,22.94
2023-04-16T11:11:21.241Z,23.05
2023-04-16T11:13:47.553Z,23.11
2023-04-16T11:16:14.160Z,23.11
2023-04-16T11:18:48.834Z,23.09
2023-04-16T11:21:17.964Z,23.11
2023-04-16T11:23:51.536Z,23.09
2023-04-16T11:26:24.660Z,23.08
2023-04-16T11:28:51.555Z,23.08
2023-04-16T11:31:17.966Z,23.08
2023-04-16T11:33:44.313Z,23.10
2023-04-16T11:36:10.620Z,23.08
2023-04-16T11:38:37.329Z,23.09
2023-04-16T11:41:03.654Z,23.10
2023-04-16T11:43:30.001Z,23.10
2023-04-16T11:45:57.236Z,23.09
2023-04-16T11:48:23.547Z,23.09
2023-04-16T11:50:59.179Z,23.08
2023-04-16T11:53:25.711Z,23.07
2023-04-16T11:55:52.065Z,23.07
2023-04-16T11:58:20.100Z,23.04
2023-04-16T12:00:47.422Z,23.04
2023-04-16T12:03:14.164Z,23.08
2023-04-16T12:05:41.028Z,23.08
2023-04-16T12:08:07.879Z,23.10
2023-04-16T12:10:35.137Z,23.17
2023-04-16T12:13:14.010Z,23.23
2023-04-16T12:15:47.002Z,23.28
2023-04-16T12:18:14.082Z,23.29
2023-04-16T12:20:41.779Z,23.32
2023-04-16T12:23:11.280Z,23.29
2023-04-16T12:25:38.627Z,23.34
2023-04-16T12:28:05.257Z,23.33
2023-04-16T12:30:31.668Z,23.34
2023-04-16T12:33:14.150Z,23.34
2023-04-16T12:35:41.893Z,23.34
2023-04-16T12:38:08.268Z,23.33
2023-04-16T12:40:35.777Z,23.30
2023-04-16T12:43:02.434Z,23.34
2023-04-16T12:45:28.749Z,23.39
2023-04-16T12:47:55.855Z,23.44
2023-04-16T12:50:22.392Z,23.46
2023-04-16T12:52:48.709Z,23.53
2023-04-16T12:55:15.017Z,23.55
2023-04-16T12:57:41.355Z,23.50
2023-04-16T13:00:10.709Z,23.53
2023-04-16T13:02:37.342Z,23.53
2023-04-16T13:05:03.833Z,23.51
2023-04-16T13:07:32.161Z,23.53
2023-04-16T13:09:58.495Z,23.50
2023-04-16T13:12:24.803Z,23.48
2023-04-16T13:14:51.125Z,23.55
2023-04-16T13:17:17.490Z,23.58
2023-04-16T13:19:43.811Z,23.55
2023-04-16T13:22:10.177Z,23.55
2023-04-16T13:24:36.578Z,23.55
2023-04-16T13:27:02.999Z,23.56
2023-04-16T13:29:30.086Z,23.62
2023-04-16T13:31:56.460Z,23.56
2023-04-16T13:34:22.768Z,23.51
2023-04-16T13:36:49.108Z,23.59
2023-04-16T13:39:15.780Z,23.63
2023-04-16T13:41:42.137Z,23.61
2023-04-16T13:44:08.476Z,23.62
2023-04-16T13:46:34.825Z,23.58
2023-04-16T13:49:01.300Z,23.58
2023-04-16T13:51:27.830Z,23.58
2023-04-16T13:53:54.262Z,23.56
2023-04-16T13:56:20.701Z,23.54
2023-04-16T13:58:47.249Z,23.51
2023-04-16T14:01:13.698Z,23.52
2023-04-16T14:03:40.945Z,23.51
2023-04-16T14:06:07.415Z,23.45
2023-04-16T14:08:33.759Z,23.49
2023-04-16T14:11:00.547Z,23.47
2023-04-16T14:13:26.884Z,23.46
2023-04-16T14:15:53.842Z,23.44
2023-04-16T14:18:20.625Z,23.40
2023-04-16T14:20:47.220Z,23.47
2023-04-16T14:23:13.544Z,22.69
2023-04-16T14:25:39.857Z,23.00
2023-04-16T14:28:06.339Z,23.21
2023-04-16T14:30:32.669Z,23.29
2023-04-16T14:32:59.190Z,23.31
2023-04-16T14:35:25.573Z,23.33
2023-04-16T14:37:51.905Z,23.32
2023-04-16T14:40:18.253Z,23.31
2023-04-16T14:42:44.571Z,23.32
2023-04-16T14:45:10.997Z,23.29
2023-04-16T14:47:37.976Z,23.26
2023-04-16T14:50:05.429Z,23.34
2023-04-16T14:52:32.018Z,23.39
2023-04-16T14:54:58.394Z,23.42
2023-04-16T14:57:24.803Z,23.47
2023-04-16T14:59:51.131Z,23.49
2023-04-16T15:02:17.575Z,23.49
2023-04-16T15:04:43.975Z,23.50
2023-04-16T15:07:10.330Z,23.49
2023-04-16T15:09:36.717Z,23.47
2023-04-16T15:12:03.058Z,23.49
2023-04-16T15:14:29.383Z,23.47
2023-04-16T15:16:55.765Z,23.48
2023-04-16T15:19:22.333Z,23.49
2023-04-16T15:21:48.948Z,23.51
2023-04-16T15:24:15.301Z,23.49
2023-04-16T15:26:41.803Z,23.47
2023-04-16T15:29:08.252Z,23.53
2023-04-16T15:31:34.586Z,23.54
2023-04-16T15:34:01.377Z,23.56
2023-04-16T15:36:27.755Z,23.59
2023-04-16T15:38:54.080Z,23.56
2023-04-16T15:41:20.392Z,23.55
2023-04-16T15:43:46.710Z,23.56
2023-04-16T15:46:13.065Z,23.54
2023-04-16T15:48:39.415Z,23.56
2023-04-16T15:51:05.805Z,23.57
2023-04-16T15:53:32.186Z,23.53
2023-04-16T15:55:58.532Z,23.52
2023-04-16T15:58:24.921Z,23.53
2023-04-16T16:00:51.691Z,23.49
2023-04-16T16:03:18.294Z,23.43
2023-04-16T16:05:52.067Z,23.29
2023-04-16T16:08:18.437Z,23.29
2023-04-16T16:10:44.753Z,23.29
2023-04-16T16:13:13.998Z,23.27
2023-04-16T16:15:43.200Z,23.28
2023-04-16T16:18:09.546Z,23.26
2023-04-16T16:20:36.610Z,23.25
2023-04-16T16:23:03.278Z,23.23
2023-04-16T16:25:30.281Z,23.23
2023-04-16T16:27:56.717Z,23.21
2023-04-16T16:30:23.208Z,23.19
2023-04-16T16:32:49.880Z,23.19
2023-04-16T16:35:16.304Z,23.21
2023-04-16T16:37:42.622Z,23.25
2023-04-16T16:40:09.406Z,23.32
2023-04-16T16:42:36.168Z,23.33
2023-04-16T16:45:06.059Z,23.34
2023-04-16T16:47:32.644Z,23.32
2023-04-16T16:50:00.095Z,23.32
2023-04-16T16:52:28.472Z,23.31
2023-04-16T16:54:56.650Z,23.31
2023-04-16T16:57:23.881Z,23.31
2023-04-16T16:59:54.274Z,23.31
2023-04-16T17:02:20.627Z,23.30
2023-04-16T17:04:46.984Z,23.22
2023-04-16T17:07:13.584Z,23.16
2023-04-16T17:09:39.909Z,23.13
2023-04-16T17:12:06.366Z,23.11
2023-04-16T17:14:32.893Z,23.06
2023-04-16T17:16:59.274Z,23.14
2023-04-16T17:19:25.896Z,23.18
2023-04-16T17:21:53.410Z,23.19
2023-04-16T17:24:19.733Z,23.18
2023-04-16T17:26:46.230Z,23.18
2023-04-16T17:29:12.800Z,23.16
2023-04-16T17:31:39.165Z,23.12
2023-04-16T17:34:06.276Z,23.12
2023-04-16T17:36:32.737Z,23.08
2023-04-16T17:38:59.315Z,23.07
2023-04-16T17:41:25.660Z,23.06
2023-04-16T17:43:52.049Z,23.04
2023-04-16T17:46:18.496Z,23.07
2023-04-16T17:48:44.923Z,23.06
2023-04-16T17:51:11.569Z,23.06
2023-04-16T17:53:37.879Z,23.10
2023-04-16T17:56:04.267Z,23.06
2023-04-16T17:58:32.954Z,23.04
2023-04-16T18:00:59.335Z,23.01
2023-04-16T18:03:25.958Z,23.01
2023-04-16T18:05:52.359Z,23.02
2023-04-16T18:08:18.908Z,23.00
2023-04-16T18:10:45.285Z,22.98
2023-04-16T18:13:11.596Z,22.97
2023-04-16T18:15:38.192Z,22.99
2023-04-16T18:18:04.915Z,23.03
2023-04-16T18:20:31.272Z,23.00
2023-04-16T18:22:57.595Z,22.99
2023-04-16T18:25:33.907Z,22.98
2023-04-16T18:28:01.170Z,22.98
2023-04-16T18:30:28.254Z,22.98
2023-04-16T18:33:25.457Z,22.98
2023-04-16T18:35:41.362Z,22.95
2023-04-16T18:38:07.703Z,22.91
2023-04-16T18:40:34.676Z,22.93
2023-04-16T18:43:00.995Z,22.92
2023-04-16T18:45:28.317Z,22.93
2023-04-16T18:47:58.281Z,22.93
2023-04-16T18:50:25.156Z,22.96
2023-04-16T18:52:51.889Z,22.99
2023-04-16T18:55:18.246Z,22.97
2023-04-16T18:57:44.695Z,22.97
2023-04-16T19:00:12.665Z,22.98
2023-04-16T19:02:39.269Z,22.93
2023-04-16T19:05:05.799Z,22.89
2023-04-16T19:07:32.135Z,22.91
2023-04-16T19:09:58.560Z,22.89
2023-04-16T19:12:24.893Z,22.90
2023-04-16T19:14:51.428Z,22.86
2023-04-16T19:17:17.827Z,22.80
2023-04-16T19:19:44.246Z,22.78
2023-04-16T19:22:10.827Z,22.76
2023-04-16T19:24:37.151Z,22.74
2023-04-16T19:27:03.808Z,22.74
2023-04-16T19:29:33.824Z,22.76
2023-04-16T19:32:00.751Z,22.74
2023-04-16T19:34:27.105Z,22.82
2023-04-16T19:36:53.659Z,22.81
2023-04-16T19:39:20.201Z,22.82
2023-04-16T19:41:46.507Z,22.81
2023-04-16T19:44:12.833Z,22.80
2023-04-16T19:46:39.162Z,22.81
2023-04-16T19:49:05.561Z,22.80
2023-04-16T19:51:31.865Z,22.80
2023-04-16T19:53:58.975Z,22.79
2023-04-16T19:56:25.375Z,22.73
2023-04-16T19:58:51.694Z,22.70
2023-04-16T20:01:18.113Z,22.68
2023-04-16T20:03:44.510Z,22.71
2023-04-16T20:06:10.908Z,22.73
2023-04-16T20:08:37.265Z,22.74
2023-04-16T20:11:03.614Z,22.74
2023-04-16T20:13:29.941Z,22.73
2023-04-16T20:15:56.660Z,22.75
2023-04-16T20:18:23.073Z,22.74
2023-04-16T20:20:49.639Z,22.75
2023-04-16T20:23:15.969Z,22.75
2023-04-16T20:25:42.629Z,22.76
2023-04-16T20:28:09.220Z,22.77
2023-04-16T20:30:39.240Z,22.69
2023-04-16T20:33:06.612Z,22.71
2023-04-16T20:35:33.230Z,22.70
2023-04-16T20:37:59.568Z,22.70
2023-04-16T20:40:30.275Z,22.69
2023-04-16T20:42:57.239Z,22.68
2023-04-16T20:45:24.522Z,22.63
2023-04-16T20:47:51.146Z,22.58
2023-04-16T20:50:17.558Z,22.52
2023-04-16T20:52:43.953Z,22.50
2023-04-16T20:55:10.694Z,22.53
2023-04-16T20:57:37.005Z,22.53
2023-04-16T21:00:05.724Z,22.48
2023-04-16T21:02:32.277Z,22.45
2023-04-16T21:04:58.715Z,22.45
2023-04-16T21:07:25.076Z,22.40
2023-04-16T21:09:51.573Z,22.44
2023-04-16T21:12:17.952Z,22.43
2023-04-16T21:14:44.290Z,22.41
2023-04-16T21:17:10.666Z,22.38
2023-04-16T21:19:37.010Z,22.35
2023-04-16T21:22:03.348Z,22.33
2023-04-16T21:24:31.308Z,22.31
2023-04-16T21:26:58.120Z,22.30
2023-04-16T21:29:24.453Z,22.35
2023-04-16T21:31:50.892Z,22.37
2023-04-16T21:34:17.635Z,22.36
2023-04-16T21:36:44.050Z,22.37
2023-04-16T21:39:11.273Z,22.37
2023-04-16T21:41:37.864Z,22.39
2023-04-16T21:44:04.180Z,22.34
2023-04-16T21:46:30.699Z,22.32
2023-04-16T21:48:57.206Z,22.22
2023-04-16T21:51:29.196Z,22.15
2023-04-16T21:53:56.132Z,22.12
2023-04-16T21:56:22.705Z,22.13
2023-04-16T21:58:49.102Z,22.12
2023-04-16T22:01:16.252Z,22.11
2023-04-16T22:03:42.941Z,22.09
2023-04-16T22:06:09.573Z,22.08
2023-04-16T22:08:35.893Z,22.08
2023-04-16T22:11:02.419Z,22.07
2023-04-16T22:13:30.058Z,22.06
2023-04-16T22:15:57.615Z,22.04
2023-04-16T22:18:27.079Z,22.04
2023-04-16T22:20:54.915Z,22.03
2023-04-16T22:23:24.629Z,22.02
2023-04-16T22:25:52.216Z,22.00
2023-04-16T22:28:18.548Z,22.01
2023-04-16T22:30:44.861Z,21.99
2023-04-16T22:33:11.368Z,21.99
2023-04-16T22:35:38.002Z,21.99
2023-04-16T22:38:04.585Z,21.98
2023-04-16T22:40:31.778Z,21.95
2023-04-16T22:42:58.110Z,21.95
2023-04-16T22:45:24.472Z,21.95
2023-04-16T22:47:50.820Z,21.93
2023-04-16T22:50:17.467Z,21.94
2023-04-16T22:52:43.791Z,21.90
2023-04-16T22:55:10.102Z,21.89
2023-04-16T22:57:36.443Z,21.89
2023-04-16T23:00:05.848Z,21.88
2023-04-16T23:02:32.237Z,21.86
2023-04-16T23:05:00.602Z,21.86
2023-04-16T23:07:26.925Z,21.86
2023-04-16T23:09:53.241Z,21.85
2023-04-16T23:12:19.555Z,21.83
2023-04-16T23:14:46.807Z,21.82
2023-04-16T23:17:13.782Z,21.82
2023-04-16T23:19:40.709Z,21.82
2023-04-16T23:22:07.096Z,21.82
2023-04-16T23:24:33.408Z,21.80
2023-04-16T23:26:59.733Z,21.80
2023-04-16T23:29:26.238Z,21.78
2023-04-16T23:31:52.642Z,21.78
2023-04-16T23:34:19.039Z,21.76
2023-04-16T23:36:45.991Z,21.75
2023-04-16T23:39:12.601Z,21.74
2023-04-16T23:41:39.371Z,21.73
2023-04-16T23:44:05.680Z,21.72
2023-04-16T23:46:32.091Z,21.72
2023-04-16T23:48:58.541Z,21.71
2023-04-16T23:52:01.799Z,21.68
2023-04-16T23:54:28.091Z,21.67
2023-04-16T23:56:54.371Z,21.66
2023-04-16T23:59:20.681Z,21.66
